Flight Track Log - Related Links

Times and Time Zones

All times are in EDT time to prevent confusion due to time zone crossing. See the N440QS flight status page for this flight to view local times or setup timezone preferences in your user account.

Time Position Orientation Groundspeed Altitude Reporting Facility
EDT Latitude Longitude Course Direction KTS MPH feet Rate Location/Type
Mon 06:44:24 AM 25.9131 -80.2925 266° West 177 204 600  Level Miami Center
Mon 06:45:18 AM 25.9092 -80.3522 266° West 220 253 2,500 2,510 Climbing Miami Center
Mon 06:46:02 AM 25.9192 -80.3903 286° West 219 252 4,700 3,049 Climbing Miami Center
Mon 06:46:19 AM 25.9367 -80.4125 311° West 242 278 5,600 2,557 Climbing Miami Center
Mon 06:47:03 AM 25.9703 -80.4486 316° Northwest 276 318 7,300 3,173 Climbing Miami Center
Mon 06:48:03 AM 26.0378 -80.5272 314° West 290 334 11,100 2,777 Climbing Miami Center
Mon 06:49:04 AM 26.1050 -80.6053 314° West 356 410 12,900 1,918 Climbing Miami Center
Mon 06:50:05 AM 26.1792 -80.6897 314° West 377 434 15,000 2,182 Climbing Miami Center
Mon 06:51:05 AM 26.2639 -80.7664 321° Northwest 382 440 17,300 2,132 Climbing Miami Center
Mon 06:52:06 AM 26.3578 -80.8311 328° Northwest 397 457 19,300 2,016 Climbing Miami Center
Mon 06:53:07 AM 26.4533 -80.8997 327° Northwest 405 466 21,400 2,033 Climbing Miami Center
Mon 06:54:07 AM 26.5517 -80.9703 327° Northwest 422 486 23,400 1,983 Climbing Miami Center
Mon 06:55:08 AM 26.6589 -81.0478 327° Northwest 423 487 25,400 1,672 Climbing Miami Center
Mon 06:56:09 AM 26.7550 -81.1169 327° Northwest 434 499 26,800 1,339 Climbing Miami Center
Mon 06:57:09 AM 26.8653 -81.1967 327° Northwest 451 519 28,100 1,289 Climbing Miami Center
Mon 06:58:10 AM 26.9756 -81.2761 327° Northwest 471 542 29,400 1,230 Climbing Miami Center
Mon 06:59:11 AM 27.0889 -81.3586 327° Northwest 483 556 30,600 1,240 Climbing Miami Center
Mon 07:00:11 AM 27.2122 -81.4478 327° Northwest 490 564 31,900 1,190 Climbing Miami Center
Mon 07:01:12 AM 27.3231 -81.5278 327° Northwest 490 564 33,000 1,180 Climbing Miami Center
Mon 07:02:13 AM 27.4408 -81.6142 327° Northwest 486 559 34,300 1,190 Climbing Miami Center
Mon 07:03:13 AM 27.5472 -81.6911 327° Northwest 474 545 35,400 1,140 Climbing Miami Center
Mon 07:04:14 AM 27.6628 -81.7758 327° Northwest 472 543 36,600 1,082 Climbing Miami Center
Mon 07:05:15 AM 27.7683 -81.8517 328° Northwest 468 539 37,600 1,041 Climbing Miami Center
Mon 07:06:15 AM 27.8792 -81.9350 326° Northwest 469 540 38,700 1,111 Climbing Miami Center
Mon 07:07:03 AM 27.9736 -82.0019 328° Northwest 480 552 39,600 1,111 Climbing Jacksonville Center
Mon 07:08:03 AM 28.0722 -82.0906 322° Northwest 464 534 40,700 1,100 Climbing Jacksonville Center
Mon 07:09:03 AM 28.1708 -82.1792 322° Northwest 458 527 41,800 1,000 Climbing Jacksonville Center
Mon 07:10:03 AM 28.2694 -82.2750 319° Northwest 453 521 42,700 600 Climbing Jacksonville Center
Mon 07:11:03 AM 28.3264 -82.3997 297° West 448 516 43,000 150 Climbing Jacksonville Center
Mon 07:12:03 AM 28.3811 -82.5292 296° West 448 516 43,000  Level Jacksonville Center
Mon 07:13:03 AM 28.4356 -82.6542 296° West 448 516 43,000  Level Jacksonville Center
Mon 07:14:03 AM 28.4922 -82.7817 297° West 448 516 43,000  Level Jacksonville Center
Mon 07:15:03 AM 28.5464 -82.9114 295° West 448 516 43,000  Level Jacksonville Center
Mon 07:16:03 AM 28.5986 -83.0367 295° West 448 516 43,000  Level Jacksonville Center
Mon 07:17:03 AM 28.6525 -83.1647 296° West 448 516 43,000  Level Jacksonville Center
Mon 07:18:03 AM 28.7086 -83.2972 296° West 448 516 43,000  Level Jacksonville Center
Mon 07:19:03 AM 28.7644 -83.4278 296° West 455 524 43,000  Level Jacksonville Center
Mon 07:20:03 AM 28.8181 -83.5583 295° West 455 524 43,000  Level Jacksonville Center
Mon 07:21:03 AM 28.8633 -83.6631 296° West 455 524 43,000  Level Jacksonville Center
Mon 07:22:03 AM 28.9231 -83.8036 296° West 455 524 43,000  Level Jacksonville Center
Mon 07:23:03 AM 28.9764 -83.9322 295° West 455 524 43,000  Level Jacksonville Center
Mon 07:24:03 AM 29.0294 -84.0608 295° West 450 518 43,000  Level Jacksonville Center
Mon 07:25:03 AM 29.0825 -84.1900 295° West 450 518 43,000  Level Jacksonville Center
Mon 07:26:03 AM 29.1394 -84.3214 296° West 450 518 43,000  Level Jacksonville Center
Mon 07:27:03 AM 29.1903 -84.4481 295° West 445 512 43,000  Level Jacksonville Center
Mon 07:28:03 AM 29.2511 -84.5919 296° West 445 512 43,000  Level Jacksonville Center
Mon 07:29:03 AM 29.3056 -84.7192 296° West 445 512 43,000  Level Jacksonville Center
Mon 07:30:03 AM 29.3581 -84.8511 295° West 450 518 43,000  Level Jacksonville Center
Mon 07:31:03 AM 29.3975 -84.9878 288° West 450 518 43,000  Level Jacksonville Center
Mon 07:32:03 AM 29.4267 -85.1267 284° West 450 518 43,000  Level Jacksonville Center
Mon 07:33:03 AM 29.4553 -85.2681 283° West 450 518 43,000  Level Jacksonville Center
Mon 07:34:03 AM 29.4839 -85.4072 283° West 450 518 43,000  Level Jacksonville Center
Mon 07:35:03 AM 29.5144 -85.5486 284° West 450 518 43,000  Level Jacksonville Center
Mon 07:36:03 AM 29.5408 -85.6878 282° West 450 518 43,000  Level Jacksonville Center
Mon 07:37:03 AM 29.5711 -85.8272 284° West 450 518 43,000  Level Jacksonville Center
Mon 07:38:03 AM 29.5969 -85.9689 282° West 450 518 43,000  Level Jacksonville Center
Mon 07:39:03 AM 29.6231 -86.0939 284° West 450 518 43,000  Level Jacksonville Center
Mon 07:40:03 AM 29.6528 -86.2358 284° West 450 518 43,000  Level Jacksonville Center
Mon 07:41:03 AM 29.6783 -86.3778 282° West 455 524 43,000  Level Jacksonville Center
Mon 07:42:03 AM 29.7097 -86.5200 284° West 455 524 43,000  Level Jacksonville Center
Mon 07:43:03 AM 29.7372 -86.6572 283° West 450 518 43,000  Level Jacksonville Center
Mon 07:44:03 AM 29.7642 -86.7994 282° West 450 518 43,000  Level Jacksonville Center
Mon 07:45:03 AM 29.7931 -86.9394 283° West 450 518 43,000  Level Jacksonville Center
Mon 07:46:03 AM 29.8178 -87.0817 281° West 450 518 43,000  Level Jacksonville Center
Mon 07:47:03 AM 29.8486 -87.2242 284° West 450 518 43,000  Level Jacksonville Center
Mon 07:48:03 AM 29.8997 -87.3725 292° West 455 524 43,000  Level Jacksonville Center
Mon 07:49:03 AM 29.9514 -87.5067 294° West 455 524 43,000  Level Jacksonville Center
Mon 07:50:24 AM 30.0119 -87.6911 291° West 453 521 43,000  Level Houston Center
Mon 07:51:25 AM 30.0411 -87.8344 283° West 455 524 43,000  Level Houston Center
Mon 07:52:27 AM 30.0636 -87.9792 280° West 456 525 43,000 -49 Level Houston Center
Mon 07:53:28 AM 30.0858 -88.1233 280° West 456 525 42,900 -836 Descending Houston Center
Mon 07:54:29 AM 30.1094 -88.2669 281° West 455 524 41,300 -1,623 Descending Houston Center
Mon 07:55:30 AM 30.1317 -88.4119 280° West 456 525 39,600 -1,672 Descending Houston Center
Mon 07:56:31 AM 30.1558 -88.5547 281° West 453 521 37,900 -1,721 Descending Houston Center
Mon 07:57:32 AM 30.1794 -88.7014 281° West 459 528 36,100 -1,918 Descending Houston Center
Mon 07:58:33 AM 30.2044 -88.8464 281° West 460 529 34,000 -2,115 Descending Houston Center
Mon 07:59:34 AM 30.2350 -89.0042 283° West 461 531 31,800 -2,213 Descending Houston Center
Mon 08:00:35 AM 30.2608 -89.1506 282° West 462 532 29,500 -2,213 Descending Houston Center
Mon 08:01:36 AM 30.2881 -89.2947 282° West 461 531 27,300 -2,115 Descending Houston Center
Mon 08:02:37 AM 30.3133 -89.4336 282° West 447 514 25,200 -2,016 Descending Houston Center
Mon 08:03:38 AM 30.3372 -89.5675 282° West 429 494 23,200 -1,902 Descending Houston Center
Mon 08:04:40 AM 30.3606 -89.6939 282° West 410 472 21,300 -1,854 Descending Houston Center
Mon 08:05:41 AM 30.3867 -89.8369 282° West 406 467 19,400 -1,770 Descending Houston Center
Mon 08:06:42 AM 30.4061 -89.9581 281° West 393 452 17,700 -1,672 Descending Houston Center
Mon 08:07:43 AM 30.4278 -90.0769 282° West 385 443 16,000 -1,721 Descending Houston Center
Mon 08:08:44 AM 30.4483 -90.1914 282° West 370 426 14,200 -1,672 Descending Houston Center
Mon 08:09:45 AM 30.4667 -90.3025 281° West 354 407 12,600 -1,525 Descending Houston Center
Mon 08:10:46 AM 30.4861 -90.4108 282° West 349 402 11,100 -780 Descending Houston Center
Mon 08:11:48 AM 30.5047 -90.5203 281° West 348 400 11,000 -244 Descending Houston Center
Mon 08:12:49 AM 30.5225 -90.6231 281° West 327 376 10,600 -1,180 Descending Houston Center
Mon 08:13:50 AM 30.5403 -90.7278 281° West 276 318 8,600 -1,951 Descending Houston Center
Mon 08:14:52 AM 30.5550 -90.8103 282° West 266 306 6,600 -1,902 Descending Houston Center
Mon 08:15:53 AM 30.5686 -90.8922 281° West 265 305 4,700 -1,721 Descending Houston Center
Mon 08:16:54 AM 30.5828 -90.9722 282° West 260 299 3,100 -1,171 Descending Houston Center
Mon 08:17:56 AM 30.5972 -91.0594 281° West 254 292 2,300 -774 Descending Houston Center
Mon 08:19:00 AM 30.5167 -91.1333 270° West  Level FlightAware Approximate
Mon 08:26:00 AM 30.5329 -91.1499 270° West  Level Estimated
Mon 08:27:00 AM 30.5329 -91.1499 270° West  Level Estimated

Login

Don't have an account? Register now (free) for customized features, flight alerts, and more!